sensor_id;sensor_type;location;lat;lon;timestamp;temperature;humidity
65046;DHT22;54657;52.022;5.534;2023-08-08T00:00:09;16.30;93.90
65046;DHT22;54657;52.022;5.534;2023-08-08T00:02:35;16.30;94.00
65046;DHT22;54657;52.022;5.534;2023-08-08T00:05:01;16.30;94.00
65046;DHT22;54657;52.022;5.534;2023-08-08T00:07:27;16.30;94.10
65046;DHT22;54657;52.022;5.534;2023-08-08T00:09:55;16.30;94.10
65046;DHT22;54657;52.022;5.534;2023-08-08T00:12:22;16.30;94.10
65046;DHT22;54657;52.022;5.534;2023-08-08T00:14:48;16.30;94.10
65046;DHT22;54657;52.022;5.534;2023-08-08T00:17:13;16.40;94.10
65046;DHT22;54657;52.022;5.534;2023-08-08T00:19:39;16.30;94.10
65046;DHT22;54657;52.022;5.534;2023-08-08T00:22:05;16.30;94.30
65046;DHT22;54657;52.022;5.534;2023-08-08T00:24:31;16.30;94.30
65046;DHT22;54657;52.022;5.534;2023-08-08T00:26:56;16.30;94.20
65046;DHT22;54657;52.022;5.534;2023-08-08T00:29:22;16.30;94.20
65046;DHT22;54657;52.022;5.534;2023-08-08T00:31:48;16.30;94.30
65046;DHT22;54657;52.022;5.534;2023-08-08T00:34:13;16.40;94.30
65046;DHT22;54657;52.022;5.534;2023-08-08T00:36:39;16.40;94.30
65046;DHT22;54657;52.022;5.534;2023-08-08T00:39:04;16.40;94.30
65046;DHT22;54657;52.022;5.534;2023-08-08T00:41:30;16.40;94.30
65046;DHT22;54657;52.022;5.534;2023-08-08T00:47:43;16.40;94.40
65046;DHT22;54657;52.022;5.534;2023-08-08T00:53:50;16.40;94.80
65046;DHT22;54657;52.022;5.534;2023-08-08T01:00:20;16.50;95.20
65046;DHT22;54657;52.022;5.534;2023-08-08T01:02:45;16.50;94.70
65046;DHT22;54657;52.022;5.534;2023-08-08T01:05:11;16.50;94.70
65046;DHT22;54657;52.022;5.534;2023-08-08T01:08:05;16.60;94.70
65046;DHT22;54657;52.022;5.534;2023-08-08T01:10:37;16.70;95.10
65046;DHT22;54657;52.022;5.534;2023-08-08T01:13:24;16.60;94.90
65046;DHT22;54657;52.022;5.534;2023-08-08T01:15:53;16.70;95.30
65046;DHT22;54657;52.022;5.534;2023-08-08T01:18:20;16.60;94.90
65046;DHT22;54657;52.022;5.534;2023-08-08T01:20:46;16.70;94.90
65046;DHT22;54657;52.022;5.534;2023-08-08T01:23:30;16.70;94.90
65046;DHT22;54657;52.022;5.534;2023-08-08T01:25:57;16.60;95.30
65046;DHT22;54657;52.022;5.534;2023-08-08T01:28:24;16.60;95.00
65046;DHT22;54657;52.022;5.534;2023-08-08T01:30:50;16.60;95.10
65046;DHT22;54657;52.022;5.534;2023-08-08T01:33:16;16.70;95.10
65046;DHT22;54657;52.022;5.534;2023-08-08T01:35:50;16.70;95.40
65046;DHT22;54657;52.022;5.534;2023-08-08T01:40:56;16.70;95.10
65046;DHT22;54657;52.022;5.534;2023-08-08T01:43:24;16.70;95.20
65046;DHT22;54657;52.022;5.534;2023-08-08T01:45:50;16.60;95.20
65046;DHT22;54657;52.022;5.534;2023-08-08T01:48:16;16.60;95.40
65046;DHT22;54657;52.022;5.534;2023-08-08T01:50:42;16.50;95.50
65046;DHT22;54657;52.022;5.534;2023-08-08T01:53:07;16.40;95.60
65046;DHT22;54657;52.022;5.534;2023-08-08T01:55:33;16.40;95.70
65046;DHT22;54657;52.022;5.534;2023-08-08T01:57:59;16.40;95.80
65046;DHT22;54657;52.022;5.534;2023-08-08T02:00:24;16.40;95.80
65046;DHT22;54657;52.022;5.534;2023-08-08T02:02:50;16.30;96.00
65046;DHT22;54657;52.022;5.534;2023-08-08T02:05:15;16.30;96.10
65046;DHT22;54657;52.022;5.534;2023-08-08T02:07:41;16.20;96.10
65046;DHT22;54657;52.022;5.534;2023-08-08T02:10:07;16.20;96.20
65046;DHT22;54657;52.022;5.534;2023-08-08T02:12:32;16.20;96.00
65046;DHT22;54657;52.022;5.534;2023-08-08T02:14:58;16.20;96.20
65046;DHT22;54657;52.022;5.534;2023-08-08T02:17:25;16.20;96.10
65046;DHT22;54657;52.022;5.534;2023-08-08T02:19:51;16.20;96.10
65046;DHT22;54657;52.022;5.534;2023-08-08T02:22:17;16.20;96.20
65046;DHT22;54657;52.022;5.534;2023-08-08T02:24:43;16.20;96.20
65046;DHT22;54657;52.022;5.534;2023-08-08T02:27:09;16.20;96.20
65046;DHT22;54657;52.022;5.534;2023-08-08T02:29:34;16.20;96.20
65046;DHT22;54657;52.022;5.534;2023-08-08T02:32:00;16.20;96.00
65046;DHT22;54657;52.022;5.534;2023-08-08T02:34:26;16.20;96.10
65046;DHT22;54657;52.022;5.534;2023-08-08T02:36:51;16.20;96.00
65046;DHT22;54657;52.022;5.534;2023-08-08T02:39:17;16.30;96.20
65046;DHT22;54657;52.022;5.534;2023-08-08T02:41:43;16.30;96.10
65046;DHT22;54657;52.022;5.534;2023-08-08T02:44:09;16.20;96.00
65046;DHT22;54657;52.022;5.534;2023-08-08T02:46:35;16.20;96.00
65046;DHT22;54657;52.022;5.534;2023-08-08T02:49:03;16.20;96.00
65046;DHT22;54657;52.022;5.534;2023-08-08T02:51:29;16.30;96.00
65046;DHT22;54657;52.022;5.534;2023-08-08T02:53:55;16.20;96.00
65046;DHT22;54657;52.022;5.534;2023-08-08T02:56:20;16.20;96.00
65046;DHT22;54657;52.022;5.534;2023-08-08T02:58:46;16.20;96.10
65046;DHT22;54657;52.022;5.534;2023-08-08T03:01:11;16.10;96.10
65046;DHT22;54657;52.022;5.534;2023-08-08T03:03:41;16.10;96.20
65046;DHT22;54657;52.022;5.534;2023-08-08T03:06:07;16.10;96.20
65046;DHT22;54657;52.022;5.534;2023-08-08T03:08:32;16.10;96.30
65046;DHT22;54657;52.022;5.534;2023-08-08T03:10:58;16.10;96.60
65046;DHT22;54657;52.022;5.534;2023-08-08T03:13:24;16.10;96.30
65046;DHT22;54657;52.022;5.534;2023-08-08T03:15:49;16.10;96.30
65046;DHT22;54657;52.022;5.534;2023-08-08T03:18:15;16.10;96.40
65046;DHT22;54657;52.022;5.534;2023-08-08T03:20:40;16.10;96.50
65046;DHT22;54657;52.022;5.534;2023-08-08T03:23:06;16.10;96.50
65046;DHT22;54657;52.022;5.534;2023-08-08T03:25:31;16.10;96.50
65046;DHT22;54657;52.022;5.534;2023-08-08T03:27:57;16.10;96.60
65046;DHT22;54657;52.022;5.534;2023-08-08T03:30:23;16.10;96.80
65046;DHT22;54657;52.022;5.534;2023-08-08T03:32:48;16.00;96.70
65046;DHT22;54657;52.022;5.534;2023-08-08T03:35:14;16.00;96.70
65046;DHT22;54657;52.022;5.534;2023-08-08T03:37:40;16.00;96.70
65046;DHT22;54657;52.022;5.534;2023-08-08T03:40:07;16.00;96.70
65046;DHT22;54657;52.022;5.534;2023-08-08T03:42:33;16.00;96.70
65046;DHT22;54657;52.022;5.534;2023-08-08T03:44:59;16.10;96.60
65046;DHT22;54657;52.022;5.534;2023-08-08T03:47:25;16.00;96.70
65046;DHT22;54657;52.022;5.534;2023-08-08T03:49:51;16.00;96.70
65046;DHT22;54657;52.022;5.534;2023-08-08T03:52:20;16.10;96.60
65046;DHT22;54657;52.022;5.534;2023-08-08T03:54:46;16.10;96.60
65046;DHT22;54657;52.022;5.534;2023-08-08T03:57:12;16.10;96.50
65046;DHT22;54657;52.022;5.534;2023-08-08T03:59:38;16.10;96.50
65046;DHT22;54657;52.022;5.534;2023-08-08T04:02:03;16.10;96.60
65046;DHT22;54657;52.022;5.534;2023-08-08T04:04:29;16.10;96.70
65046;DHT22;54657;52.022;5.534;2023-08-08T04:06:55;16.10;96.70
65046;DHT22;54657;52.022;5.534;2023-08-08T04:09:21;16.10;96.60
65046;DHT22;54657;52.022;5.534;2023-08-08T04:11:46;16.10;96.70
65046;DHT22;54657;52.022;5.534;2023-08-08T04:14:12;16.10;96.60
65046;DHT22;54657;52.022;5.534;2023-08-08T04:16:38;16.10;96.70
65046;DHT22;54657;52.022;5.534;2023-08-08T04:19:05;16.00;96.90
65046;DHT22;54657;52.022;5.534;2023-08-08T04:21:31;16.00;96.90
65046;DHT22;54657;52.022;5.534;2023-08-08T04:24:00;15.90;96.80
65046;DHT22;54657;52.022;5.534;2023-08-08T04:26:26;15.90;96.90
65046;DHT22;54657;52.022;5.534;2023-08-08T04:28:51;15.90;97.00
65046;DHT22;54657;52.022;5.534;2023-08-08T04:31:17;15.90;97.00
65046;DHT22;54657;52.022;5.534;2023-08-08T04:33:43;15.90;96.90
65046;DHT22;54657;52.022;5.534;2023-08-08T04:36:08;15.90;97.00
65046;DHT22;54657;52.022;5.534;2023-08-08T04:38:34;15.90;97.10
65046;DHT22;54657;52.022;5.534;2023-08-08T04:41:00;15.90;97.00
65046;DHT22;54657;52.022;5.534;2023-08-08T04:43:25;15.90;97.10
65046;DHT22;54657;52.022;5.534;2023-08-08T04:45:53;15.90;97.00
65046;DHT22;54657;52.022;5.534;2023-08-08T04:48:19;16.00;97.00
65046;DHT22;54657;52.022;5.534;2023-08-08T04:50:46;15.90;96.90
65046;DHT22;54657;52.022;5.534;2023-08-08T04:53:12;16.00;97.30
65046;DHT22;54657;52.022;5.534;2023-08-08T04:55:37;16.00;96.90
65046;DHT22;54657;52.022;5.534;2023-08-08T04:58:03;16.00;97.00
65046;DHT22;54657;52.022;5.534;2023-08-08T05:00:28;16.00;97.00
65046;DHT22;54657;52.022;5.534;2023-08-08T05:02:54;16.00;97.00
65046;DHT22;54657;52.022;5.534;2023-08-08T05:05:20;16.00;97.20
65046;DHT22;54657;52.022;5.534;2023-08-08T05:07:45;16.00;97.00
65046;DHT22;54657;52.022;5.534;2023-08-08T05:10:11;16.00;97.10
65046;DHT22;54657;52.022;5.534;2023-08-08T05:12:36;16.00;97.10
65046;DHT22;54657;52.022;5.534;2023-08-08T05:15:02;16.00;97.10
65046;DHT22;54657;52.022;5.534;2023-08-08T05:17:30;16.00;97.10
65046;DHT22;54657;52.022;5.534;2023-08-08T05:19:57;16.10;97.20
65046;DHT22;54657;52.022;5.534;2023-08-08T05:22:22;16.10;97.10
65046;DHT22;54657;52.022;5.534;2023-08-08T05:24:48;16.10;97.10
65046;DHT22;54657;52.022;5.534;2023-08-08T05:27:13;16.10;97.10
65046;DHT22;54657;52.022;5.534;2023-08-08T05:29:39;16.10;97.20
65046;DHT22;54657;52.022;5.534;2023-08-08T05:32:07;16.10;97.10
65046;DHT22;54657;52.022;5.534;2023-08-08T05:34:36;16.10;97.20
65046;DHT22;54657;52.022;5.534;2023-08-08T05:37:02;16.10;97.40
65046;DHT22;54657;52.022;5.534;2023-08-08T05:39:27;16.10;97.20
65046;DHT22;54657;52.022;5.534;2023-08-08T05:41:53;16.20;97.20
65046;DHT22;54657;52.022;5.534;2023-08-08T05:44:18;16.20;97.10
65046;DHT22;54657;52.022;5.534;2023-08-08T05:46:44;16.20;97.20
65046;DHT22;54657;52.022;5.534;2023-08-08T05:49:10;16.20;97.10
65046;DHT22;54657;52.022;5.534;2023-08-08T05:51:35;16.20;97.10
65046;DHT22;54657;52.022;5.534;2023-08-08T05:54:01;16.20;97.10
65046;DHT22;54657;52.022;5.534;2023-08-08T05:56:37;16.30;97.10
65046;DHT22;54657;52.022;5.534;2023-08-08T05:59:03;16.30;97.10
65046;DHT22;54657;52.022;5.534;2023-08-08T06:01:29;16.30;97.00
65046;DHT22;54657;52.022;5.534;2023-08-08T06:03:55;16.30;96.90
65046;DHT22;54657;52.022;5.534;2023-08-08T06:06:21;16.40;96.90
65046;DHT22;54657;52.022;5.534;2023-08-08T06:08:46;16.40;96.80
65046;DHT22;54657;52.022;5.534;2023-08-08T06:11:12;16.40;96.70
65046;DHT22;54657;52.022;5.534;2023-08-08T06:13:38;16.40;96.60
65046;DHT22;54657;52.022;5.534;2023-08-08T06:16:03;16.50;96.50
65046;DHT22;54657;52.022;5.534;2023-08-08T06:18:32;16.50;96.40
65046;DHT22;54657;52.022;5.534;2023-08-08T06:20:58;16.50;96.20
65046;DHT22;54657;52.022;5.534;2023-08-08T06:23:24;16.50;96.20
65046;DHT22;54657;52.022;5.534;2023-08-08T06:25:49;16.50;96.10
65046;DHT22;54657;52.022;5.534;2023-08-08T06:28:15;16.50;96.10
65046;DHT22;54657;52.022;5.534;2023-08-08T06:30:41;16.60;95.90
65046;DHT22;54657;52.022;5.534;2023-08-08T06:33:06;16.60;95.90
65046;DHT22;54657;52.022;5.534;2023-08-08T06:35:32;16.60;95.80
65046;DHT22;54657;52.022;5.534;2023-08-08T06:37:57;16.60;95.80
65046;DHT22;54657;52.022;5.534;2023-08-08T06:40:23;16.70;95.60
65046;DHT22;54657;52.022;5.534;2023-08-08T06:42:49;16.70;95.30
65046;DHT22;54657;52.022;5.534;2023-08-08T06:45:15;16.70;95.20
65046;DHT22;54657;52.022;5.534;2023-08-08T06:47:40;16.70;95.00
65046;DHT22;54657;52.022;5.534;2023-08-08T06:50:06;16.80;95.10
65046;DHT22;54657;52.022;5.534;2023-08-08T06:52:32;16.80;94.90
65046;DHT22;54657;52.022;5.534;2023-08-08T06:54:58;16.80;94.90
65046;DHT22;54657;52.022;5.534;2023-08-08T06:57:23;16.90;94.90
65046;DHT22;54657;52.022;5.534;2023-08-08T06:59:49;17.00;94.70
65046;DHT22;54657;52.022;5.534;2023-08-08T07:02:17;17.00;94.50
65046;DHT22;54657;52.022;5.534;2023-08-08T07:04:43;17.10;94.50
65046;DHT22;54657;52.022;5.534;2023-08-08T07:07:09;17.10;94.30
65046;DHT22;54657;52.022;5.534;2023-08-08T07:09:35;17.20;94.00
65046;DHT22;54657;52.022;5.534;2023-08-08T07:12:03;17.20;93.90
65046;DHT22;54657;52.022;5.534;2023-08-08T07:14:29;17.20;93.70
65046;DHT22;54657;52.022;5.534;2023-08-08T07:16:54;17.30;94.00
65046;DHT22;54657;52.022;5.534;2023-08-08T07:19:21;17.30;93.90
65046;DHT22;54657;52.022;5.534;2023-08-08T07:21:47;17.40;93.70
65046;DHT22;54657;52.022;5.534;2023-08-08T07:24:12;17.40;93.40
65046;DHT22;54657;52.022;5.534;2023-08-08T07:26:38;17.50;93.40
65046;DHT22;54657;52.022;5.534;2023-08-08T07:29:04;17.70;93.20
65046;DHT22;54657;52.022;5.534;2023-08-08T07:31:31;17.80;93.10
65046;DHT22;54657;52.022;5.534;2023-08-08T07:33:57;17.90;92.90
65046;DHT22;54657;52.022;5.534;2023-08-08T07:36:23;18.00;92.70
65046;DHT22;54657;52.022;5.534;2023-08-08T07:38:48;18.10;92.50
65046;DHT22;54657;52.022;5.534;2023-08-08T07:41:14;18.10;92.30
65046;DHT22;54657;52.022;5.534;2023-08-08T07:43:40;18.20;92.30
65046;DHT22;54657;52.022;5.534;2023-08-08T07:46:06;18.20;92.40
65046;DHT22;54657;52.022;5.534;2023-08-08T07:48:31;18.30;92.20
65046;DHT22;54657;52.022;5.534;2023-08-08T07:50:57;18.40;92.30
65046;DHT22;54657;52.022;5.534;2023-08-08T07:53:22;18.50;92.10
65046;DHT22;54657;52.022;5.534;2023-08-08T07:55:48;18.50;91.80
65046;DHT22;54657;52.022;5.534;2023-08-08T07:58:14;18.60;91.70
65046;DHT22;54657;52.022;5.534;2023-08-08T08:00:39;18.60;91.60
65046;DHT22;54657;52.022;5.534;2023-08-08T08:03:05;18.60;91.50
65046;DHT22;54657;52.022;5.534;2023-08-08T08:05:30;18.60;91.70
65046;DHT22;54657;52.022;5.534;2023-08-08T08:07:56;18.70;91.70
65046;DHT22;54657;52.022;5.534;2023-08-08T08:10:22;18.70;91.40
65046;DHT22;54657;52.022;5.534;2023-08-08T08:12:47;18.80;91.40
65046;DHT22;54657;52.022;5.534;2023-08-08T08:15:13;18.80;91.60
65046;DHT22;54657;52.022;5.534;2023-08-08T08:17:38;18.90;91.20
65046;DHT22;54657;52.022;5.534;2023-08-08T08:20:05;18.90;91.00
65046;DHT22;54657;52.022;5.534;2023-08-08T08:22:34;18.90;90.90
65046;DHT22;54657;52.022;5.534;2023-08-08T08:24:59;18.90;90.40
65046;DHT22;54657;52.022;5.534;2023-08-08T08:27:25;18.90;90.30
65046;DHT22;54657;52.022;5.534;2023-08-08T08:29:51;18.90;90.30
65046;DHT22;54657;52.022;5.534;2023-08-08T08:32:16;19.00;90.50
65046;DHT22;54657;52.022;5.534;2023-08-08T08:34:42;19.00;90.30
65046;DHT22;54657;52.022;5.534;2023-08-08T08:37:07;19.00;90.50
65046;DHT22;54657;52.022;5.534;2023-08-08T08:39:33;19.00;90.40
65046;DHT22;54657;52.022;5.534;2023-08-08T08:42:00;19.00;90.50
65046;DHT22;54657;52.022;5.534;2023-08-08T08:44:31;19.00;90.50
65046;DHT22;54657;52.022;5.534;2023-08-08T08:47:02;19.00;90.30
65046;DHT22;54657;52.022;5.534;2023-08-08T08:49:30;19.00;89.80
65046;DHT22;54657;52.022;5.534;2023-08-08T08:51:57;19.00;88.90
65046;DHT22;54657;52.022;5.534;2023-08-08T08:54:27;19.10;89.00
65046;DHT22;54657;52.022;5.534;2023-08-08T08:56:55;19.20;89.50
65046;DHT22;54657;52.022;5.534;2023-08-08T08:59:21;19.20;89.00
65046;DHT22;54657;52.022;5.534;2023-08-08T09:01:46;19.20;88.90
65046;DHT22;54657;52.022;5.534;2023-08-08T09:04:13;19.10;89.10
65046;DHT22;54657;52.022;5.534;2023-08-08T09:06:40;19.20;89.30
65046;DHT22;54657;52.022;5.534;2023-08-08T09:09:05;19.10;88.00
65046;DHT22;54657;52.022;5.534;2023-08-08T09:11:31;19.20;88.30
65046;DHT22;54657;52.022;5.534;2023-08-08T09:13:57;19.20;87.30
65046;DHT22;54657;52.022;5.534;2023-08-08T09:16:23;19.30;87.50
65046;DHT22;54657;52.022;5.534;2023-08-08T09:18:48;19.40;86.80
65046;DHT22;54657;52.022;5.534;2023-08-08T09:21:14;19.40;86.60
65046;DHT22;54657;52.022;5.534;2023-08-08T09:23:41;19.40;86.80
65046;DHT22;54657;52.022;5.534;2023-08-08T09:26:06;19.50;86.30
65046;DHT22;54657;52.022;5.534;2023-08-08T09:28:32;19.60;86.20
65046;DHT22;54657;52.022;5.534;2023-08-08T09:30:58;19.60;85.00
65046;DHT22;54657;52.022;5.534;2023-08-08T09:33:27;19.60;85.20
65046;DHT22;54657;52.022;5.534;2023-08-08T09:35:53;19.60;85.20
65046;DHT22;54657;52.022;5.534;2023-08-08T09:38:20;19.50;84.30
65046;DHT22;54657;52.022;5.534;2023-08-08T09:40:45;19.50;85.50
65046;DHT22;54657;52.022;5.534;2023-08-08T09:43:11;19.50;85.40
65046;DHT22;54657;52.022;5.534;2023-08-08T09:45:38;19.50;84.90
65046;DHT22;54657;52.022;5.534;2023-08-08T09:48:05;19.60;84.60
65046;DHT22;54657;52.022;5.534;2023-08-08T09:50:33;19.60;84.50
65046;DHT22;54657;52.022;5.534;2023-08-08T09:52:59;19.80;84.10
65046;DHT22;54657;52.022;5.534;2023-08-08T09:55:25;19.90;83.80
65046;DHT22;54657;52.022;5.534;2023-08-08T09:57:52;19.90;84.20
65046;DHT22;54657;52.022;5.534;2023-08-08T10:00:18;19.90;82.90
65046;DHT22;54657;52.022;5.534;2023-08-08T10:02:46;20.00;82.60
65046;DHT22;54657;52.022;5.534;2023-08-08T10:05:14;20.10;82.80
65046;DHT22;54657;52.022;5.534;2023-08-08T10:07:41;20.10;81.90
65046;DHT22;54657;52.022;5.534;2023-08-08T10:10:08;20.00;81.90
65046;DHT22;54657;52.022;5.534;2023-08-08T10:12:37;19.90;82.10
65046;DHT22;54657;52.022;5.534;2023-08-08T10:15:07;19.80;82.30
65046;DHT22;54657;52.022;5.534;2023-08-08T10:17:40;19.80;82.30
65046;DHT22;54657;52.022;5.534;2023-08-08T10:20:09;19.80;81.20
65046;DHT22;54657;52.022;5.534;2023-08-08T10:22:44;19.80;82.10
65046;DHT22;54657;52.022;5.534;2023-08-08T10:25:26;19.80;82.10
65046;DHT22;54657;52.022;5.534;2023-08-08T10:28:16;19.80;80.90
65046;DHT22;54657;52.022;5.534;2023-08-08T10:30:53;19.80;79.20
65046;DHT22;54657;52.022;5.534;2023-08-08T10:36:04;19.90;82.00
65046;DHT22;54657;52.022;5.534;2023-08-08T10:38:43;20.00;79.70
65046;DHT22;54657;52.022;5.534;2023-08-08T10:41:11;20.00;80.90
65046;DHT22;54657;52.022;5.534;2023-08-08T10:43:38;20.00;81.20
65046;DHT22;54657;52.022;5.534;2023-08-08T10:46:04;20.10;81.40
65046;DHT22;54657;52.022;5.534;2023-08-08T10:48:30;20.20;81.10
65046;DHT22;54657;52.022;5.534;2023-08-08T10:51:00;20.40;80.80
65046;DHT22;54657;52.022;5.534;2023-08-08T10:53:27;20.50;80.30
65046;DHT22;54657;52.022;5.534;2023-08-08T10:56:01;20.50;80.10
65046;DHT22;54657;52.022;5.534;2023-08-08T10:58:41;20.50;79.10
65046;DHT22;54657;52.022;5.534;2023-08-08T11:01:07;20.50;76.30
65046;DHT22;54657;52.022;5.534;2023-08-08T11:03:39;20.40;80.20
65046;DHT22;54657;52.022;5.534;2023-08-08T11:06:09;20.30;79.40
65046;DHT22;54657;52.022;5.534;2023-08-08T11:08:36;20.30;77.80
65046;DHT22;54657;52.022;5.534;2023-08-08T11:11:04;20.20;79.80
65046;DHT22;54657;52.022;5.534;2023-08-08T11:13:29;20.10;80.20
65046;DHT22;54657;52.022;5.534;2023-08-08T11:15:55;20.10;80.20
65046;DHT22;54657;52.022;5.534;2023-08-08T11:18:21;20.30;80.40
65046;DHT22;54657;52.022;5.534;2023-08-08T11:20:48;20.40;80.60
65046;DHT22;54657;52.022;5.534;2023-08-08T11:23:13;20.40;80.10
65046;DHT22;54657;52.022;5.534;2023-08-08T11:25:41;20.40;79.30
65046;DHT22;54657;52.022;5.534;2023-08-08T11:28:08;20.50;79.10
65046;DHT22;54657;52.022;5.534;2023-08-08T11:30:43;20.50;79.70
65046;DHT22;54657;52.022;5.534;2023-08-08T11:33:09;20.60;78.70
65046;DHT22;54657;52.022;5.534;2023-08-08T11:35:36;20.70;78.90
65046;DHT22;54657;52.022;5.534;2023-08-08T11:38:03;20.80;78.50
65046;DHT22;54657;52.022;5.534;2023-08-08T11:40:30;20.80;78.00
65046;DHT22;54657;52.022;5.534;2023-08-08T11:42:57;20.80;77.80
65046;DHT22;54657;52.022;5.534;2023-08-08T11:45:23;20.70;77.90
65046;DHT22;54657;52.022;5.534;2023-08-08T11:47:54;20.70;78.00
65046;DHT22;54657;52.022;5.534;2023-08-08T11:50:21;20.60;77.50
65046;DHT22;54657;52.022;5.534;2023-08-08T11:52:50;20.60;78.00
65046;DHT22;54657;52.022;5.534;2023-08-08T11:55:16;20.60;78.40
65046;DHT22;54657;52.022;5.534;2023-08-08T11:57:42;20.70;78.10
65046;DHT22;54657;52.022;5.534;2023-08-08T12:00:10;20.70;77.50
65046;DHT22;54657;52.022;5.534;2023-08-08T12:02:39;20.70;77.10
65046;DHT22;54657;52.022;5.534;2023-08-08T12:05:05;20.60;76.00
65046;DHT22;54657;52.022;5.534;2023-08-08T12:07:33;20.60;77.10
65046;DHT22;54657;52.022;5.534;2023-08-08T12:09:59;20.70;77.20
65046;DHT22;54657;52.022;5.534;2023-08-08T12:12:28;20.70;77.30
65046;DHT22;54657;52.022;5.534;2023-08-08T12:14:54;20.80;77.10
65046;DHT22;54657;52.022;5.534;2023-08-08T12:17:21;20.70;77.10
65046;DHT22;54657;52.022;5.534;2023-08-08T12:19:47;20.70;76.60
65046;DHT22;54657;52.022;5.534;2023-08-08T12:22:13;20.60;77.10
65046;DHT22;54657;52.022;5.534;2023-08-08T12:24:40;20.60;76.70
65046;DHT22;54657;52.022;5.534;2023-08-08T12:27:05;20.70;76.60
65046;DHT22;54657;52.022;5.534;2023-08-08T12:29:31;20.70;76.40
65046;DHT22;54657;52.022;5.534;2023-08-08T12:31:56;20.70;76.40
65046;DHT22;54657;52.022;5.534;2023-08-08T12:34:22;20.70;76.10
65046;DHT22;54657;52.022;5.534;2023-08-08T12:36:47;20.80;76.30
65046;DHT22;54657;52.022;5.534;2023-08-08T12:39:13;20.80;76.50
65046;DHT22;54657;52.022;5.534;2023-08-08T12:41:39;20.90;76.30
65046;DHT22;54657;52.022;5.534;2023-08-08T12:44:05;20.90;76.20
65046;DHT22;54657;52.022;5.534;2023-08-08T12:46:31;20.90;75.50
65046;DHT22;54657;52.022;5.534;2023-08-08T12:48:56;20.90;75.50
65046;DHT22;54657;52.022;5.534;2023-08-08T12:51:22;20.80;75.40
65046;DHT22;54657;52.022;5.534;2023-08-08T12:53:48;20.70;76.00
65046;DHT22;54657;52.022;5.534;2023-08-08T12:56:13;20.60;75.70
65046;DHT22;54657;52.022;5.534;2023-08-08T12:58:39;20.50;75.60
65046;DHT22;54657;52.022;5.534;2023-08-08T13:01:06;20.40;76.30
65046;DHT22;54657;52.022;5.534;2023-08-08T13:03:33;20.30;76.50
65046;DHT22;54657;52.022;5.534;2023-08-08T13:05:59;20.30;76.40
65046;DHT22;54657;52.022;5.534;2023-08-08T13:08:25;20.40;76.10
65046;DHT22;54657;52.022;5.534;2023-08-08T13:10:51;20.40;76.60
65046;DHT22;54657;52.022;5.534;2023-08-08T13:13:16;20.40;75.70
65046;DHT22;54657;52.022;5.534;2023-08-08T13:15:42;20.40;76.30
65046;DHT22;54657;52.022;5.534;2023-08-08T13:18:08;20.60;76.40
65046;DHT22;54657;52.022;5.534;2023-08-08T13:20:34;20.80;76.20
65046;DHT22;54657;52.022;5.534;2023-08-08T13:23:00;20.90;76.90
65046;DHT22;54657;52.022;5.534;2023-08-08T13:25:25;20.90;75.80
65046;DHT22;54657;52.022;5.534;2023-08-08T13:27:51;20.80;75.90
65046;DHT22;54657;52.022;5.534;2023-08-08T13:30:16;20.90;76.20
65046;DHT22;54657;52.022;5.534;2023-08-08T13:32:42;20.90;76.50
65046;DHT22;54657;52.022;5.534;2023-08-08T13:35:09;20.90;76.20
65046;DHT22;54657;52.022;5.534;2023-08-08T13:37:34;20.90;76.10
65046;DHT22;54657;52.022;5.534;2023-08-08T13:40:00;20.90;76.00
65046;DHT22;54657;52.022;5.534;2023-08-08T13:42:25;20.90;76.00
65046;DHT22;54657;52.022;5.534;2023-08-08T13:44:51;20.90;75.80
65046;DHT22;54657;52.022;5.534;2023-08-08T13:47:16;20.90;75.60
65046;DHT22;54657;52.022;5.534;2023-08-08T13:49:42;20.90;75.50
65046;DHT22;54657;52.022;5.534;2023-08-08T13:52:08;20.80;75.70
65046;DHT22;54657;52.022;5.534;2023-08-08T13:54:34;20.80;75.90
65046;DHT22;54657;52.022;5.534;2023-08-08T13:57:00;20.70;75.60
65046;DHT22;54657;52.022;5.534;2023-08-08T13:59:25;20.60;75.90
65046;DHT22;54657;52.022;5.534;2023-08-08T14:01:52;20.50;76.10
65046;DHT22;54657;52.022;5.534;2023-08-08T14:04:17;20.40;75.90
65046;DHT22;54657;52.022;5.534;2023-08-08T14:06:43;20.40;75.90
65046;DHT22;54657;52.022;5.534;2023-08-08T14:09:09;20.30;76.00
65046;DHT22;54657;52.022;5.534;2023-08-08T14:11:34;20.30;75.80
65046;DHT22;54657;52.022;5.534;2023-08-08T14:14:00;20.30;75.80
65046;DHT22;54657;52.022;5.534;2023-08-08T14:16:26;20.30;75.80
65046;DHT22;54657;52.022;5.534;2023-08-08T14:18:51;20.30;75.60
65046;DHT22;54657;52.022;5.534;2023-08-08T14:21:17;20.30;75.80
65046;DHT22;54657;52.022;5.534;2023-08-08T14:23:42;20.30;75.50
65046;DHT22;54657;52.022;5.534;2023-08-08T14:26:09;20.30;75.50
65046;DHT22;54657;52.022;5.534;2023-08-08T14:28:35;20.30;75.50
65046;DHT22;54657;52.022;5.534;2023-08-08T14:31:00;20.30;74.90
65046;DHT22;54657;52.022;5.534;2023-08-08T14:33:27;20.30;75.70
65046;DHT22;54657;52.022;5.534;2023-08-08T14:35:53;20.30;75.00
65046;DHT22;54657;52.022;5.534;2023-08-08T14:38:23;20.40;75.30
65046;DHT22;54657;52.022;5.534;2023-08-08T14:40:48;20.40;75.10
65046;DHT22;54657;52.022;5.534;2023-08-08T14:43:14;20.40;74.60
65046;DHT22;54657;52.022;5.534;2023-08-08T14:45:39;20.50;74.80
65046;DHT22;54657;52.022;5.534;2023-08-08T14:48:06;20.50;74.60
65046;DHT22;54657;52.022;5.534;2023-08-08T14:50:32;20.50;74.00
65046;DHT22;54657;52.022;5.534;2023-08-08T14:52:58;20.40;74.00
65046;DHT22;54657;52.022;5.534;2023-08-08T14:55:23;20.40;74.20
65046;DHT22;54657;52.022;5.534;2023-08-08T14:57:49;20.40;74.20
65046;DHT22;54657;52.022;5.534;2023-08-08T15:00:15;20.40;74.20
65046;DHT22;54657;52.022;5.534;2023-08-08T15:02:40;20.40;73.90
65046;DHT22;54657;52.022;5.534;2023-08-08T15:05:06;20.40;74.10
65046;DHT22;54657;52.022;5.534;2023-08-08T15:07:32;20.40;74.70
65046;DHT22;54657;52.022;5.534;2023-08-08T15:09:57;20.40;73.80
65046;DHT22;54657;52.022;5.534;2023-08-08T15:12:23;20.40;73.60
65046;DHT22;54657;52.022;5.534;2023-08-08T15:14:49;20.40;73.90
65046;DHT22;54657;52.022;5.534;2023-08-08T15:17:16;20.50;73.90
65046;DHT22;54657;52.022;5.534;2023-08-08T15:19:44;20.50;73.60
65046;DHT22;54657;52.022;5.534;2023-08-08T15:22:09;20.50;72.80
65046;DHT22;54657;52.022;5.534;2023-08-08T15:24:37;20.50;73.20
65046;DHT22;54657;52.022;5.534;2023-08-08T15:27:03;20.50;73.30
65046;DHT22;54657;52.022;5.534;2023-08-08T15:29:29;20.50;73.30
65046;DHT22;54657;52.022;5.534;2023-08-08T15:31:55;20.40;73.40
65046;DHT22;54657;52.022;5.534;2023-08-08T15:34:21;20.50;73.50
65046;DHT22;54657;52.022;5.534;2023-08-08T15:36:46;20.50;73.60
65046;DHT22;54657;52.022;5.534;2023-08-08T15:39:12;20.50;73.70
65046;DHT22;54657;52.022;5.534;2023-08-08T15:41:37;20.40;73.60